createdAt,value
2023-03-26T00:02:13.960Z,4.15
2023-03-26T00:05:17.250Z,4.38
2023-03-26T00:08:20.614Z,5.45
2023-03-26T00:11:26.603Z,4.27
2023-03-26T00:14:30.494Z,5.03
2023-03-26T00:17:34.674Z,4.75
2023-03-26T00:20:38.522Z,5.45
2023-03-26T00:23:43.113Z,6.60
2023-03-26T00:26:53.485Z,5.57
2023-03-26T00:29:56.939Z,5.03
2023-03-26T00:33:00.444Z,5.25
2023-03-26T00:36:04.782Z,4.37
2023-03-26T00:39:10.151Z,5.32
2023-03-26T00:42:14.797Z,4.55
2023-03-26T00:45:21.314Z,5.00
2023-03-26T00:48:41.925Z,4.07
2023-03-26T00:51:48.083Z,6.13
2023-03-26T00:54:54.445Z,5.78
2023-03-26T00:57:57.770Z,5.80
2023-03-26T01:01:04.701Z,6.07
2023-03-26T01:04:34.789Z,6.47
2023-03-26T01:07:38.977Z,7.00
2023-03-26T01:10:50.852Z,5.10
2023-03-26T01:14:06.360Z,4.13
2023-03-26T01:17:12.505Z,5.32
2023-03-26T01:20:19.338Z,5.47
2023-03-26T01:23:30.024Z,6.10
2023-03-26T01:26:54.147Z,6.18
2023-03-26T01:30:06.703Z,5.20
2023-03-26T01:33:37.420Z,4.00
2023-03-26T01:37:02.840Z,5.38
2023-03-26T01:40:44.001Z,4.60
2023-03-26T01:44:14.196Z,4.22
2023-03-26T01:47:19.330Z,3.70
2023-03-26T01:50:23.992Z,5.20
2023-03-26T01:53:27.700Z,5.07
2023-03-26T01:57:09.113Z,5.35
2023-03-26T02:00:28.551Z,5.40
2023-03-26T02:03:39.131Z,5.53
2023-03-26T02:07:05.778Z,4.38
2023-03-26T02:10:23.286Z,5.38
2023-03-26T02:13:27.404Z,5.07
2023-03-26T02:16:30.591Z,5.22
2023-03-26T02:19:33.828Z,5.97
2023-03-26T02:22:41.420Z,4.40
2023-03-26T02:25:46.912Z,4.40
2023-03-26T02:28:50.581Z,4.50
2023-03-26T02:31:54.701Z,5.28
2023-03-26T02:34:58.165Z,7.10
2023-03-26T02:38:02.076Z,4.95
2023-03-26T02:41:06.028Z,4.63
2023-03-26T02:44:27.853Z,4.90
2023-03-26T02:47:35.732Z,5.25
2023-03-26T02:51:02.577Z,3.37
2023-03-26T02:54:34.516Z,7.60
2023-03-26T02:57:57.924Z,4.15
2023-03-26T03:01:08.053Z,3.72
2023-03-26T03:04:24.014Z,4.93
2023-03-26T03:07:27.576Z,4.33
2023-03-26T03:10:33.251Z,4.80
2023-03-26T03:13:54.281Z,4.38
2023-03-26T03:17:07.950Z,5.10
2023-03-26T03:20:12.056Z,8.07
2023-03-26T03:23:16.200Z,5.05
2023-03-26T03:26:23.208Z,6.55
2023-03-26T03:29:28.910Z,4.43
2023-03-26T03:32:34.624Z,4.93
2023-03-26T03:35:41.674Z,4.70
2023-03-26T03:38:45.794Z,5.15
2023-03-26T03:41:53.674Z,5.38
2023-03-26T03:44:57.112Z,5.37
2023-03-26T03:48:19.103Z,5.32
2023-03-26T03:51:24.671Z,6.30
2023-03-26T03:54:39.154Z,6.45
2023-03-26T03:57:52.593Z,5.57
2023-03-26T04:01:00.913Z,6.00
2023-03-26T04:04:28.513Z,6.50
2023-03-26T04:07:36.248Z,6.45
2023-03-26T04:10:43.815Z,7.00
2023-03-26T04:13:47.092Z,5.53
2023-03-26T04:17:02.260Z,7.22
2023-03-26T04:20:09.104Z,8.20
2023-03-26T04:23:18.143Z,6.50
2023-03-26T04:26:25.057Z,6.43
2023-03-26T04:29:50.763Z,7.07
2023-03-26T04:33:00.900Z,7.50
2023-03-26T04:36:10.305Z,6.72
2023-03-26T04:39:14.224Z,7.30
2023-03-26T04:42:46.866Z,7.97
2023-03-26T04:46:03.445Z,6.70
2023-03-26T04:49:11.311Z,6.82
2023-03-26T04:52:15.907Z,7.83
2023-03-26T04:55:42.159Z,8.90
2023-03-26T04:58:59.800Z,7.50
2023-03-26T05:02:06.222Z,6.93
2023-03-26T05:05:19.258Z,7.07
2023-03-26T05:08:22.655Z,6.40
2023-03-26T05:11:26.993Z,6.57
2023-03-26T05:14:30.618Z,8.43
2023-03-26T05:17:41.491Z,6.82
2023-03-26T05:20:52.041Z,7.80
2023-03-26T05:23:55.914Z,6.57
2023-03-26T05:26:59.781Z,6.77
2023-03-26T05:30:04.740Z,8.60
2023-03-26T05:33:14.782Z,11.90
2023-03-26T05:36:26.044Z,12.95
2023-03-26T05:39:41.338Z,12.48
2023-03-26T05:43:04.100Z,11.52
2023-03-26T05:46:18.232Z,8.63
2023-03-26T05:49:23.749Z,7.88
2023-03-26T05:52:28.016Z,9.82
2023-03-26T05:55:57.773Z,6.37
2023-03-26T05:59:19.495Z,6.10
2023-03-26T06:02:42.951Z,6.55
2023-03-26T06:06:20.618Z,6.78
2023-03-26T06:09:34.786Z,6.45
2023-03-26T06:12:38.505Z,6.50
2023-03-26T06:15:42.599Z,7.50
2023-03-26T06:18:58.028Z,7.55
2023-03-26T06:22:15.603Z,6.03
2023-03-26T06:25:47.874Z,7.53
2023-03-26T06:29:17.822Z,6.23
2023-03-26T06:32:32.331Z,9.52
2023-03-26T06:35:42.984Z,6.75
2023-03-26T06:38:46.468Z,6.80
2023-03-26T06:41:49.746Z,13.98
2023-03-26T06:45:19.571Z,7.07
2023-03-26T06:49:00.888Z,5.78
2023-03-26T06:52:26.181Z,6.75
2023-03-26T06:56:06.110Z,6.05
2023-03-26T06:59:38.327Z,5.50
2023-03-26T07:03:00.361Z,4.93
2023-03-26T07:06:22.151Z,6.03
2023-03-26T07:09:54.436Z,4.50
2023-03-26T07:13:33.058Z,6.65
2023-03-26T07:16:55.027Z,5.30
2023-03-26T07:20:09.572Z,5.00
2023-03-26T07:23:15.618Z,4.90
2023-03-26T07:27:14.938Z,4.85
2023-03-26T07:30:47.906Z,3.83
2023-03-26T07:34:22.605Z,4.07
2023-03-26T07:37:59.696Z,4.60
2023-03-26T07:41:28.978Z,6.10
2023-03-26T07:44:56.813Z,4.75
2023-03-26T07:48:25.479Z,3.85
2023-03-26T07:51:50.043Z,5.32
2023-03-26T07:55:07.680Z,4.93
2023-03-26T07:59:10.574Z,6.63
2023-03-26T08:02:45.979Z,3.72
2023-03-26T08:06:19.710Z,3.42
2023-03-26T08:10:05.751Z,3.38
2023-03-26T08:13:43.576Z,2.73
2023-03-26T08:17:09.132Z,6.97
2023-03-26T08:20:31.188Z,3.88
2023-03-26T08:24:16.355Z,3.92
2023-03-26T08:27:55.913Z,3.30
2023-03-26T08:31:03.022Z,3.70
2023-03-26T08:34:09.918Z,3.40
2023-03-26T08:37:13.168Z,4.78
2023-03-26T08:40:35.969Z,3.63
2023-03-26T08:44:04.179Z,3.17
2023-03-26T08:47:25.242Z,3.50
2023-03-26T08:51:12.840Z,2.87
2023-03-26T08:54:46.294Z,2.60
2023-03-26T08:58:09.115Z,2.67
2023-03-26T09:01:53.633Z,2.60
2023-03-26T09:05:24.769Z,3.23
2023-03-26T09:09:04.627Z,2.97
2023-03-26T09:13:07.364Z,3.17
2023-03-26T09:16:38.090Z,3.28
2023-03-26T09:20:18.757Z,2.20
2023-03-26T09:24:06.717Z,2.90
2023-03-26T09:27:13.021Z,2.53
2023-03-26T09:30:30.332Z,2.45
2023-03-26T09:33:45.458Z,4.15
2023-03-26T09:37:23.841Z,2.80
2023-03-26T09:40:54.392Z,3.80
2023-03-26T09:44:13.402Z,2.53
2023-03-26T09:47:32.313Z,2.08
2023-03-26T09:50:47.467Z,3.08
2023-03-26T09:54:20.664Z,6.10
2023-03-26T09:57:24.369Z,2.70
2023-03-26T10:04:42.150Z,4.45
2023-03-26T10:08:07.839Z,2.97
2023-03-26T10:11:13.648Z,3.38
2023-03-26T10:14:26.209Z,3.87
2023-03-26T10:17:57.266Z,2.50
2023-03-26T10:21:16.257Z,2.42
2023-03-26T10:24:39.798Z,4.15
2023-03-26T10:28:11.811Z,3.35
2023-03-26T10:31:40.321Z,3.00
2023-03-26T10:35:17.815Z,2.40
2023-03-26T10:38:52.219Z,2.03
2023-03-26T10:42:14.217Z,2.20
2023-03-26T10:45:26.354Z,1.80
2023-03-26T10:48:51.018Z,3.10
2023-03-26T10:52:02.089Z,1.43
2023-03-26T10:55:08.744Z,1.75
2023-03-26T10:58:26.160Z,2.88
2023-03-26T11:01:29.464Z,3.42
2023-03-26T11:05:03.287Z,1.83
2023-03-26T11:08:13.126Z,2.17
2023-03-26T11:11:23.754Z,1.08
2023-03-26T11:15:03.507Z,3.65
2023-03-26T11:18:33.489Z,1.67
2023-03-26T11:21:41.729Z,2.17
2023-03-26T11:25:06.681Z,3.10
2023-03-26T11:28:34.640Z,1.67
2023-03-26T11:32:13.682Z,2.55
2023-03-26T11:35:39.452Z,2.15
2023-03-26T11:38:49.153Z,2.70
2023-03-26T11:42:07.560Z,3.57
2023-03-26T11:45:24.149Z,1.90
2023-03-26T11:48:45.706Z,1.98
2023-03-26T11:51:49.351Z,2.67
2023-03-26T11:54:52.754Z,2.20
2023-03-26T11:58:00.106Z,1.50
2023-03-26T12:01:16.252Z,2.63
2023-03-26T12:04:30.752Z,2.42
2023-03-26T12:07:35.755Z,2.38
2023-03-26T12:10:42.966Z,1.87
2023-03-26T12:14:00.471Z,1.63
2023-03-26T12:17:07.554Z,1.20
2023-03-26T12:20:25.916Z,2.40
2023-03-26T12:23:58.409Z,1.60
2023-03-26T12:27:20.331Z,4.47
2023-03-26T12:30:30.924Z,2.07
2023-03-26T12:33:35.404Z,4.75
2023-03-26T12:36:39.119Z,1.75
2023-03-26T12:40:07.250Z,1.92
2023-03-26T12:44:49.666Z,2.67
2023-03-26T12:47:57.075Z,1.93
2023-03-26T12:50:16.149Z,2.03
2023-03-26T12:53:38.517Z,1.50
2023-03-26T12:57:12.654Z,3.33
2023-03-26T13:00:49.127Z,2.77
2023-03-26T13:04:17.191Z,3.67
2023-03-26T13:07:39.952Z,2.00
2023-03-26T13:10:51.165Z,2.58
2023-03-26T13:14:27.982Z,2.83
2023-03-26T13:17:39.090Z,1.30
2023-03-26T13:20:58.632Z,2.60
2023-03-26T13:24:34.860Z,1.33
2023-03-26T13:27:59.596Z,2.15
2023-03-26T13:31:19.474Z,1.45
2023-03-26T13:34:53.073Z,1.33
2023-03-26T13:38:08.423Z,2.77
2023-03-26T13:41:30.039Z,1.00
2023-03-26T13:44:53.467Z,2.28
2023-03-26T13:48:17.116Z,4.53
2023-03-26T13:51:45.040Z,1.20
2023-03-26T13:55:11.934Z,2.10
2023-03-26T13:58:34.757Z,3.15
2023-03-26T14:01:51.151Z,2.25
2023-03-26T14:05:04.782Z,1.60
2023-03-26T14:08:23.984Z,0.77
2023-03-26T14:11:56.899Z,1.00
2023-03-26T14:15:04.726Z,0.73
2023-03-26T14:18:11.090Z,3.67
2023-03-26T14:21:23.907Z,1.55
2023-03-26T14:24:43.408Z,2.90
2023-03-26T14:28:10.867Z,1.03
2023-03-26T14:31:19.553Z,1.00
2023-03-26T14:34:23.543Z,2.20
2023-03-26T14:37:46.485Z,1.30
2023-03-26T14:41:21.803Z,1.90
2023-03-26T14:44:30.506Z,1.60
2023-03-26T14:48:22.586Z,1.52
2023-03-26T14:51:33.219Z,1.83
2023-03-26T14:54:41.989Z,2.17
2023-03-26T14:58:27.949Z,1.87
2023-03-26T15:01:56.378Z,1.87
2023-03-26T15:05:38.189Z,4.13
2023-03-26T15:09:02.634Z,2.05
2023-03-26T15:12:28.302Z,1.58
2023-03-26T15:15:55.500Z,2.17
2023-03-26T15:19:19.381Z,1.60
2023-03-26T15:23:13.501Z,4.38
2023-03-26T15:26:38.073Z,2.45
2023-03-26T15:30:02.766Z,1.83
2023-03-26T15:33:35.063Z,1.77
2023-03-26T15:36:56.529Z,1.30
2023-03-26T15:40:38.115Z,1.48
2023-03-26T15:44:07.551Z,2.45
2023-03-26T15:47:57.447Z,3.33
2023-03-26T15:51:22.470Z,1.70
2023-03-26T15:54:37.676Z,1.17
2023-03-26T15:57:48.830Z,2.08
2023-03-26T16:01:20.554Z,1.40
2023-03-26T16:04:50.141Z,2.10
2023-03-26T16:08:04.416Z,3.20
2023-03-26T16:11:12.630Z,2.13
2023-03-26T16:14:36.134Z,4.00
2023-03-26T16:18:05.295Z,4.65
2023-03-26T16:21:32.445Z,2.95
2023-03-26T16:24:46.587Z,2.37
2023-03-26T16:28:07.762Z,3.70
2023-03-26T16:31:37.101Z,2.88
2023-03-26T16:34:55.556Z,3.78
2023-03-26T16:38:18.628Z,3.97
2023-03-26T16:41:32.685Z,4.67
2023-03-26T16:44:48.133Z,3.33
2023-03-26T16:48:19.703Z,3.45
2023-03-26T16:51:53.676Z,4.53
2023-03-26T16:55:15.868Z,3.22
2023-03-26T16:58:43.779Z,2.87
2023-03-26T17:01:56.795Z,2.80
2023-03-26T17:05:19.583Z,5.45
2023-03-26T17:08:43.115Z,3.33
2023-03-26T17:12:04.684Z,3.53
2023-03-26T17:15:08.454Z,3.80
2023-03-26T17:18:29.071Z,5.13
2023-03-26T17:21:55.990Z,5.55
2023-03-26T17:25:24.784Z,3.75
2023-03-26T17:29:01.645Z,5.57
2023-03-26T17:32:14.857Z,3.77
2023-03-26T17:35:34.640Z,4.83
2023-03-26T17:38:45.281Z,5.57
2023-03-26T17:41:55.726Z,7.25
2023-03-26T17:45:28.963Z,5.38
2023-03-26T17:48:42.142Z,6.37
2023-03-26T17:51:59.266Z,6.27
2023-03-26T17:55:03.871Z,5.97
2023-03-26T17:58:23.397Z,7.22
2023-03-26T18:01:29.684Z,4.38
2023-03-26T18:04:45.055Z,5.80
2023-03-26T18:08:02.087Z,6.87
2023-03-26T18:11:30.156Z,6.40
2023-03-26T18:14:42.975Z,6.28
2023-03-26T18:17:48.149Z,6.85
2023-03-26T18:20:55.070Z,5.40
2023-03-26T18:24:01.165Z,5.10
2023-03-26T18:27:22.479Z,4.72
2023-03-26T18:30:26.303Z,3.67
2023-03-26T18:33:43.535Z,3.90
2023-03-26T18:36:54.384Z,5.53
2023-03-26T18:39:59.017Z,3.97
2023-03-26T18:43:02.655Z,4.75
2023-03-26T18:46:07.034Z,6.55
2023-03-26T18:49:15.509Z,4.30
2023-03-26T18:52:20.357Z,5.27
2023-03-26T18:55:30.855Z,7.23
2023-03-26T18:58:39.184Z,5.25
2023-03-26T19:01:47.320Z,6.95
2023-03-26T19:04:54.384Z,3.92
2023-03-26T19:07:59.319Z,4.10
2023-03-26T19:11:04.932Z,3.53
2023-03-26T19:14:17.092Z,8.65
2023-03-26T19:17:21.488Z,4.63
2023-03-26T19:20:28.082Z,3.65
2023-03-26T19:23:41.188Z,4.23
2023-03-26T19:26:45.328Z,3.47
2023-03-26T19:29:48.928Z,6.28
2023-03-26T19:32:55.776Z,5.40
2023-03-26T19:36:29.743Z,5.00
2023-03-26T19:39:39.024Z,5.30
2023-03-26T19:42:44.750Z,4.83
2023-03-26T19:46:00.318Z,6.38
2023-03-26T19:49:05.437Z,3.83
2023-03-26T19:52:14.926Z,3.45
2023-03-26T19:55:24.170Z,4.83
2023-03-26T19:58:28.100Z,3.80
2023-03-26T20:01:32.242Z,4.75
2023-03-26T20:04:35.812Z,4.95
2023-03-26T20:07:39.431Z,3.92
2023-03-26T20:10:43.818Z,3.03
2023-03-26T20:13:47.782Z,5.07
2023-03-26T20:16:51.432Z,5.47
2023-03-26T20:19:54.845Z,8.02
2023-03-26T20:22:58.683Z,5.22
2023-03-26T20:26:02.126Z,3.47
2023-03-26T20:29:07.848Z,3.33
2023-03-26T20:32:23.691Z,4.20
2023-03-26T20:35:35.842Z,4.40
2023-03-26T20:38:41.072Z,4.13
2023-03-26T20:41:47.643Z,5.33
2023-03-26T20:44:51.064Z,4.13
2023-03-26T20:47:54.509Z,5.32
2023-03-26T20:50:57.978Z,4.32
2023-03-26T20:54:02.033Z,4.95
2023-03-26T20:57:05.263Z,5.13
2023-03-26T21:00:22.225Z,4.73
2023-03-26T21:03:25.561Z,4.57
2023-03-26T21:06:28.970Z,5.45
2023-03-26T21:09:35.675Z,4.43
2023-03-26T21:13:16.453Z,3.93
2023-03-26T21:16:19.930Z,4.40
2023-03-26T21:19:23.293Z,2.75
2023-03-26T21:23:12.922Z,4.70
2023-03-26T21:26:32.720Z,5.30
2023-03-26T21:29:36.803Z,4.10
2023-03-26T21:32:41.230Z,4.10
2023-03-26T21:35:45.260Z,6.82
2023-03-26T21:38:50.584Z,3.72
2023-03-26T21:42:04.766Z,5.57
2023-03-26T21:45:10.057Z,5.70
2023-03-26T21:48:13.884Z,6.80
2023-03-26T21:51:19.436Z,4.53
2023-03-26T21:54:26.509Z,5.30
2023-03-26T21:57:42.472Z,5.65
2023-03-26T22:01:02.710Z,5.60
2023-03-26T22:04:19.071Z,4.97
2023-03-26T22:07:28.323Z,5.05
2023-03-26T22:10:32.958Z,4.65
2023-03-26T22:13:38.240Z,5.57
2023-03-26T22:16:41.764Z,5.80
2023-03-26T22:19:45.177Z,5.37
2023-03-26T22:22:48.959Z,5.93
2023-03-26T22:25:52.654Z,4.15
2023-03-26T22:28:56.927Z,5.68
2023-03-26T22:32:00.163Z,5.43
2023-03-26T22:35:04.257Z,4.87
2023-03-26T22:38:07.495Z,5.93
2023-03-26T22:41:12.923Z,5.13
2023-03-26T22:44:20.316Z,6.35
2023-03-26T22:47:25.073Z,5.70
2023-03-26T22:50:28.419Z,6.70
2023-03-26T22:53:32.718Z,5.75
2023-03-26T22:56:37.124Z,5.40
2023-03-26T22:59:40.437Z,5.60
2023-03-26T23:02:45.290Z,6.03
2023-03-26T23:05:59.987Z,5.00
2023-03-26T23:09:03.920Z,4.40
2023-03-26T23:12:07.788Z,4.65
2023-03-26T23:15:11.560Z,6.32
2023-03-26T23:18:14.829Z,6.23
2023-03-26T23:21:22.306Z,4.93
2023-03-26T23:24:30.162Z,4.40
2023-03-26T23:27:34.031Z,4.57
2023-03-26T23:30:37.902Z,6.72
2023-03-26T23:33:50.316Z,4.70
2023-03-26T23:36:53.866Z,4.60
2023-03-26T23:39:58.720Z,4.78
2023-03-26T23:43:01.937Z,5.10
2023-03-26T23:46:05.582Z,5.65
2023-03-26T23:49:10.116Z,5.97
2023-03-26T23:52:16.974Z,4.63
2023-03-26T23:55:20.319Z,6.32
2023-03-26T23:58:24.687Z,5.43
